KZR652 UACC-UAAA
Flight info
| Callsign | KZR652 |
|---|---|
| Flight time | 1h 21m |
| Altitude | 37000 |
| Route | BANOS W333 ETEDA |
| Aircraft | A321/M-SDE3FGHIRWY/LB1 |
Departure
| Time | 2026-04-24 08:48 |
|---|---|
| Airport | Nursultan Nazarbayev International Airport (UACC) |
Arrival
| Time | 2026-04-24 10:09 |
|---|---|
| Airport | Almaty International Airport (UAAA) |
| Time | Latitude | Longitude | Altitude | Speed | Heading |
|---|---|---|---|---|---|
| 2026-04-24 08:37 | 51.02591 | 71.46214 | 1173 ft | 2 kts | 285° |
| 2026-04-24 08:37 | 51.02589 | 71.46237 | 1173 ft | 2 kts | 259° |
| 2026-04-24 08:37 | 51.02595 | 71.46260 | 1173 ft | 2 kts | 232° |
| 2026-04-24 08:38 | 51.02599 | 71.46268 | 1173 ft | 1 kts | 220° |
| 2026-04-24 08:38 | 51.02602 | 71.46272 | 1173 ft | 0 kts | 224° |
| 2026-04-24 08:40 | 51.02602 | 71.46271 | 1173 ft | 0 kts | 224° |
| 2026-04-24 08:40 | 51.02598 | 71.46265 | 1173 ft | 1 kts | 224° |
| 2026-04-24 08:40 | 51.02590 | 71.46252 | 1173 ft | 2 kts | 224° |
| 2026-04-24 08:41 | 51.02577 | 71.46233 | 1173 ft | 2 kts | 224° |
| 2026-04-24 08:41 | 51.02561 | 71.46207 | 1173 ft | 3 kts | 225° |
| 2026-04-24 08:41 | 51.02541 | 71.46174 | 1173 ft | 4 kts | 225° |
| 2026-04-24 08:41 | 51.02515 | 71.46133 | 1173 ft | 6 kts | 225° |
| 2026-04-24 08:42 | 51.02472 | 71.46089 | 1173 ft | 9 kts | 187° |
| 2026-04-24 08:42 | 51.02412 | 71.46144 | 1173 ft | 11 kts | 134° |
| 2026-04-24 08:42 | 51.02352 | 71.46249 | 1173 ft | 13 kts | 112° |
| 2026-04-24 08:42 | 51.02401 | 71.46383 | 1173 ft | 16 kts | 43° |
| 2026-04-24 08:43 | 51.02489 | 71.46519 | 1173 ft | 19 kts | 43° |
| 2026-04-24 08:43 | 51.02590 | 71.46673 | 1173 ft | 21 kts | 45° |
| 2026-04-24 08:43 | 51.02698 | 71.46845 | 1173 ft | 23 kts | 44° |
| 2026-04-24 08:43 | 51.02813 | 71.47024 | 1173 ft | 22 kts | 44° |
| 2026-04-24 08:44 | 51.02927 | 71.47199 | 1173 ft | 22 kts | 45° |
| 2026-04-24 08:44 | 51.03033 | 71.47369 | 1173 ft | 21 kts | 44° |
| 2026-04-24 08:44 | 51.03141 | 71.47536 | 1173 ft | 21 kts | 44° |
| 2026-04-24 08:44 | 51.03245 | 71.47698 | 1173 ft | 20 kts | 44° |
| 2026-04-24 08:45 | 51.03347 | 71.47858 | 1173 ft | 20 kts | 45° |
| 2026-04-24 08:45 | 51.03429 | 71.48037 | 1173 ft | 19 kts | 82° |
| 2026-04-24 08:45 | 51.03432 | 71.48206 | 1173 ft | 11 kts | 89° |
| 2026-04-24 08:45 | 51.03409 | 71.48302 | 1173 ft | 10 kts | 136° |
| 2026-04-24 08:46 | 51.03403 | 71.48311 | 1173 ft | 0 kts | 136° |
| 2026-04-24 08:46 | 51.03388 | 71.48334 | 1173 ft | 4 kts | 137° |
| 2026-04-24 08:46 | 51.03358 | 71.48336 | 1173 ft | 5 kts | 216° |
| 2026-04-24 08:46 | 51.03346 | 71.48319 | 1173 ft | 0 kts | 224° |
| 2026-04-24 08:47 | 51.03343 | 71.48314 | 1173 ft | 5 kts | 224° |
| 2026-04-24 08:47 | 51.03133 | 71.47985 | 1173 ft | 81 kts | 224° |
| 2026-04-24 08:47 | 51.02567 | 71.47105 | 1174 ft | 144 kts | 225° |
| 2026-04-24 08:47 | 51.01790 | 71.45916 | 1589 ft | 160 kts | 223° |
| 2026-04-24 08:48 | 51.00997 | 71.44701 | 2293 ft | 162 kts | 225° |
| 2026-04-24 08:48 | 51.00142 | 71.43602 | 3022 ft | 164 kts | 209° |
| 2026-04-24 08:48 | 50.98969 | 71.43506 | 3489 ft | 186 kts | 160° |
| 2026-04-24 08:48 | 50.97944 | 71.44889 | 3856 ft | 206 kts | 134° |
| 2026-04-24 08:49 | 50.96963 | 71.46643 | 4190 ft | 221 kts | 135° |
| 2026-04-24 08:49 | 50.95867 | 71.48485 | 4459 ft | 242 kts | 136° |
| 2026-04-24 08:49 | 50.94644 | 71.50457 | 4821 ft | 261 kts | 137° |
| 2026-04-24 08:49 | 50.93330 | 71.52531 | 5381 ft | 272 kts | 137° |
| 2026-04-24 08:50 | 50.91991 | 71.54620 | 6139 ft | 275 kts | 137° |
| 2026-04-24 08:50 | 50.90533 | 71.56584 | 6918 ft | 275 kts | 147° |
| 2026-04-24 08:50 | 50.88935 | 71.58250 | 7711 ft | 277 kts | 150° |
| 2026-04-24 08:50 | 50.87310 | 71.59867 | 8495 ft | 279 kts | 151° |
| 2026-04-24 08:51 | 50.85683 | 71.61498 | 9264 ft | 282 kts | 151° |
| 2026-04-24 08:51 | 50.84044 | 71.63163 | 10035 ft | 284 kts | 151° |
| 2026-04-24 08:51 | 50.82359 | 71.64887 | 10649 ft | 293 kts | 151° |
| 2026-04-24 08:51 | 50.80594 | 71.66697 | 11014 ft | 310 kts | 152° |
| 2026-04-24 08:52 | 50.78769 | 71.68582 | 11513 ft | 321 kts | 151° |
| 2026-04-24 08:52 | 50.76865 | 71.70386 | 12206 ft | 322 kts | 157° |
| 2026-04-24 08:52 | 50.74852 | 71.71907 | 12911 ft | 324 kts | 160° |
| 2026-04-24 08:52 | 50.72778 | 71.73399 | 13591 ft | 328 kts | 160° |
| 2026-04-24 08:53 | 50.70711 | 71.74892 | 14247 ft | 332 kts | 160° |
| 2026-04-24 08:53 | 50.68614 | 71.76425 | 14913 ft | 336 kts | 159° |
| 2026-04-24 08:53 | 50.66485 | 71.77997 | 15578 ft | 339 kts | 159° |
| 2026-04-24 08:53 | 50.64366 | 71.79571 | 16222 ft | 341 kts | 159° |
| 2026-04-24 08:54 | 50.62233 | 71.81160 | 16836 ft | 345 kts | 159° |
| 2026-04-24 08:54 | 50.60057 | 71.82783 | 17447 ft | 348 kts | 158° |
| 2026-04-24 08:54 | 50.57849 | 71.84431 | 18059 ft | 351 kts | 158° |
| 2026-04-24 08:54 | 50.55671 | 71.86059 | 18642 ft | 354 kts | 158° |
| 2026-04-24 08:55 | 50.53437 | 71.87726 | 19222 ft | 357 kts | 158° |
| 2026-04-24 08:55 | 50.51185 | 71.89403 | 19788 ft | 360 kts | 158° |
| 2026-04-24 08:55 | 50.48929 | 71.91083 | 20342 ft | 362 kts | 158° |
| 2026-04-24 08:55 | 50.46669 | 71.92767 | 20882 ft | 365 kts | 158° |
| 2026-04-24 08:56 | 50.44358 | 71.94485 | 21406 ft | 369 kts | 158° |
| 2026-04-24 08:56 | 50.42051 | 71.96197 | 21922 ft | 371 kts | 158° |
| 2026-04-24 08:56 | 50.39700 | 71.97942 | 22435 ft | 374 kts | 157° |
| 2026-04-24 08:56 | 50.37333 | 71.99695 | 22938 ft | 377 kts | 157° |
| 2026-04-24 08:57 | 50.34989 | 72.01432 | 23422 ft | 380 kts | 157° |
| 2026-04-24 08:57 | 50.32593 | 72.03205 | 23903 ft | 383 kts | 157° |
| 2026-04-24 08:57 | 50.30166 | 72.04999 | 24363 ft | 385 kts | 157° |
| 2026-04-24 08:57 | 50.27761 | 72.06775 | 24804 ft | 388 kts | 157° |
| 2026-04-24 08:58 | 50.25303 | 72.08589 | 25227 ft | 391 kts | 157° |
| 2026-04-24 08:58 | 50.22863 | 72.10385 | 25634 ft | 393 kts | 157° |
| 2026-04-24 08:58 | 50.20372 | 72.12219 | 26022 ft | 396 kts | 157° |
| 2026-04-24 08:58 | 50.17891 | 72.14042 | 26396 ft | 399 kts | 157° |
| 2026-04-24 08:59 | 50.15393 | 72.15875 | 26755 ft | 401 kts | 157° |
| 2026-04-24 08:59 | 50.12852 | 72.17738 | 27118 ft | 404 kts | 157° |
| 2026-04-24 08:59 | 50.10330 | 72.19582 | 27479 ft | 406 kts | 157° |
| 2026-04-24 08:59 | 50.07754 | 72.21465 | 27851 ft | 407 kts | 157° |
| 2026-04-24 09:00 | 50.05206 | 72.23328 | 28204 ft | 409 kts | 157° |
| 2026-04-24 09:00 | 50.02615 | 72.25217 | 28550 ft | 411 kts | 157° |
| 2026-04-24 09:00 | 50.00042 | 72.27091 | 28875 ft | 414 kts | 157° |
| 2026-04-24 09:00 | 49.97417 | 72.29002 | 29208 ft | 416 kts | 157° |
| 2026-04-24 09:01 | 49.94808 | 72.30898 | 29517 ft | 419 kts | 157° |
| 2026-04-24 09:01 | 49.92181 | 72.32805 | 29829 ft | 421 kts | 157° |
| 2026-04-24 09:01 | 49.89514 | 72.34738 | 30130 ft | 423 kts | 156° |
| 2026-04-24 09:01 | 49.86824 | 72.36685 | 30436 ft | 425 kts | 156° |
| 2026-04-24 09:02 | 49.84167 | 72.38607 | 30736 ft | 428 kts | 156° |
| 2026-04-24 09:02 | 49.81455 | 72.40570 | 31035 ft | 430 kts | 157° |
| 2026-04-24 09:02 | 49.78759 | 72.42517 | 31326 ft | 432 kts | 157° |
| 2026-04-24 09:02 | 49.76013 | 72.44498 | 31606 ft | 434 kts | 157° |
| 2026-04-24 09:03 | 49.73294 | 72.46455 | 31873 ft | 436 kts | 157° |
| 2026-04-24 09:03 | 49.70536 | 72.48437 | 32157 ft | 438 kts | 157° |
| 2026-04-24 09:03 | 49.67790 | 72.50407 | 32433 ft | 439 kts | 157° |
| 2026-04-24 09:03 | 49.65039 | 72.52380 | 32760 ft | 439 kts | 157° |
| 2026-04-24 09:04 | 49.62252 | 72.54376 | 33125 ft | 439 kts | 157° |
| 2026-04-24 09:04 | 49.59515 | 72.56335 | 33486 ft | 438 kts | 157° |
| 2026-04-24 09:04 | 49.56739 | 72.58320 | 33835 ft | 438 kts | 157° |
| 2026-04-24 09:04 | 49.54007 | 72.60269 | 34148 ft | 437 kts | 157° |
| 2026-04-24 09:05 | 49.51238 | 72.62241 | 34451 ft | 437 kts | 157° |
| 2026-04-24 09:05 | 49.48503 | 72.64188 | 34761 ft | 437 kts | 157° |
| 2026-04-24 09:05 | 49.45723 | 72.66164 | 35013 ft | 437 kts | 158° |
| 2026-04-24 09:05 | 49.42985 | 72.68110 | 35199 ft | 436 kts | 159° |
| 2026-04-24 09:06 | 49.40251 | 72.70049 | 35388 ft | 436 kts | 159° |
| 2026-04-24 09:06 | 49.37488 | 72.72006 | 35550 ft | 436 kts | 159° |
| 2026-04-24 09:06 | 49.34757 | 72.73936 | 35680 ft | 437 kts | 159° |
| 2026-04-24 09:06 | 49.31976 | 72.75900 | 35827 ft | 438 kts | 159° |
| 2026-04-24 09:07 | 49.29229 | 72.77838 | 35975 ft | 439 kts | 159° |
| 2026-04-24 09:07 | 49.26443 | 72.79801 | 36113 ft | 440 kts | 159° |
| 2026-04-24 09:07 | 49.20899 | 72.83702 | 36508 ft | 441 kts | 159° |
| 2026-04-24 09:08 | 49.18140 | 72.85638 | 36695 ft | 442 kts | 159° |
| 2026-04-24 09:08 | 49.15343 | 72.87599 | 36880 ft | 443 kts | 159° |
| 2026-04-24 09:08 | 49.12541 | 72.89562 | 37047 ft | 444 kts | 159° |
| 2026-04-24 09:08 | 49.09764 | 72.91502 | 37078 ft | 445 kts | 159° |
| 2026-04-24 09:09 | 49.04151 | 72.95422 | 37086 ft | 444 kts | 159° |
| 2026-04-24 09:09 | 48.98537 | 72.99331 | 37095 ft | 444 kts | 159° |
| 2026-04-24 09:10 | 48.92945 | 73.03215 | 37093 ft | 444 kts | 159° |
| 2026-04-24 09:10 | 48.87304 | 73.07125 | 37090 ft | 445 kts | 159° |
| 2026-04-24 09:11 | 48.81681 | 73.11011 | 37094 ft | 445 kts | 159° |
| 2026-04-24 09:11 | 48.76043 | 73.14899 | 37097 ft | 445 kts | 159° |
| 2026-04-24 09:12 | 48.70437 | 73.18758 | 37094 ft | 445 kts | 159° |
| 2026-04-24 09:12 | 48.64825 | 73.22607 | 37100 ft | 445 kts | 159° |
| 2026-04-24 09:13 | 48.59179 | 73.26473 | 37098 ft | 445 kts | 159° |
| 2026-04-24 09:13 | 48.53552 | 73.30315 | 37099 ft | 445 kts | 159° |
| 2026-04-24 09:14 | 48.47960 | 73.34123 | 37103 ft | 445 kts | 159° |
| 2026-04-24 09:14 | 48.42301 | 73.37969 | 37104 ft | 445 kts | 159° |
| 2026-04-24 09:15 | 48.36689 | 73.41774 | 37098 ft | 445 kts | 159° |
| 2026-04-24 09:15 | 48.31059 | 73.45582 | 37101 ft | 446 kts | 160° |
| 2026-04-24 09:16 | 48.25423 | 73.49384 | 37106 ft | 446 kts | 160° |
| 2026-04-24 09:16 | 48.19764 | 73.53192 | 37106 ft | 446 kts | 160° |
| 2026-04-24 09:17 | 48.14138 | 73.56972 | 37104 ft | 446 kts | 160° |
| 2026-04-24 09:17 | 48.08495 | 73.60753 | 37104 ft | 446 kts | 160° |
| 2026-04-24 09:18 | 48.02863 | 73.64520 | 37102 ft | 446 kts | 160° |
| 2026-04-24 09:18 | 47.97172 | 73.68313 | 37096 ft | 445 kts | 160° |
| 2026-04-24 09:19 | 47.91548 | 73.72041 | 37103 ft | 446 kts | 160° |
| 2026-04-24 09:19 | 47.85851 | 73.75808 | 37100 ft | 446 kts | 160° |
| 2026-04-24 09:20 | 47.80199 | 73.79539 | 37096 ft | 446 kts | 160° |
| 2026-04-24 09:20 | 47.74538 | 73.83270 | 37096 ft | 446 kts | 161° |
| 2026-04-24 09:21 | 47.68875 | 73.86989 | 37099 ft | 446 kts | 161° |
| 2026-04-24 09:21 | 47.63203 | 73.90709 | 37098 ft | 446 kts | 161° |
| 2026-04-24 09:22 | 47.57550 | 73.94409 | 37096 ft | 446 kts | 161° |
| 2026-04-24 09:22 | 47.51871 | 73.98116 | 37093 ft | 447 kts | 161° |
| 2026-04-24 09:23 | 47.46196 | 74.01814 | 37090 ft | 447 kts | 161° |
| 2026-04-24 09:23 | 47.40538 | 74.05491 | 37091 ft | 447 kts | 161° |
| 2026-04-24 09:24 | 47.34839 | 74.09181 | 37087 ft | 447 kts | 161° |
| 2026-04-24 09:24 | 47.29175 | 74.12837 | 37088 ft | 447 kts | 161° |
| 2026-04-24 09:25 | 47.23476 | 74.16509 | 37086 ft | 448 kts | 161° |
| 2026-04-24 09:25 | 47.17775 | 74.20175 | 37085 ft | 448 kts | 161° |
| 2026-04-24 09:26 | 47.12087 | 74.23827 | 37083 ft | 448 kts | 161° |
| 2026-04-24 09:26 | 47.06369 | 74.27490 | 37082 ft | 448 kts | 161° |
| 2026-04-24 09:27 | 47.00698 | 74.31114 | 37080 ft | 448 kts | 161° |
| 2026-04-24 09:27 | 46.94994 | 74.34752 | 37081 ft | 448 kts | 161° |
| 2026-04-24 09:28 | 46.89316 | 74.38364 | 37080 ft | 448 kts | 161° |
| 2026-04-24 09:28 | 46.83601 | 74.41991 | 37080 ft | 448 kts | 161° |
| 2026-04-24 09:29 | 46.77893 | 74.45609 | 37078 ft | 448 kts | 161° |
| 2026-04-24 09:29 | 46.72174 | 74.49219 | 37078 ft | 448 kts | 161° |
| 2026-04-24 09:30 | 46.66484 | 74.52797 | 37078 ft | 448 kts | 161° |
| 2026-04-24 09:30 | 46.60789 | 74.56374 | 37084 ft | 448 kts | 161° |
| 2026-04-24 09:31 | 46.55069 | 74.59959 | 37084 ft | 447 kts | 161° |
| 2026-04-24 09:31 | 46.49376 | 74.63521 | 37083 ft | 447 kts | 161° |
| 2026-04-24 09:32 | 46.43689 | 74.67072 | 37086 ft | 446 kts | 162° |
| 2026-04-24 09:32 | 46.37982 | 74.70627 | 37088 ft | 446 kts | 162° |
| 2026-04-24 09:33 | 46.32296 | 74.74162 | 37082 ft | 446 kts | 162° |
| 2026-04-24 09:33 | 46.26605 | 74.77692 | 37081 ft | 446 kts | 162° |
| 2026-04-24 09:34 | 46.20913 | 74.81215 | 37083 ft | 446 kts | 162° |
| 2026-04-24 09:34 | 46.15242 | 74.84719 | 37085 ft | 446 kts | 162° |
| 2026-04-24 09:35 | 46.09520 | 74.88246 | 37083 ft | 445 kts | 162° |
| 2026-04-24 09:35 | 46.03844 | 74.91730 | 37080 ft | 445 kts | 162° |
| 2026-04-24 09:36 | 45.98181 | 74.95196 | 37082 ft | 445 kts | 162° |
| 2026-04-24 09:36 | 45.92484 | 74.98677 | 37084 ft | 445 kts | 162° |
| 2026-04-24 09:37 | 45.86775 | 75.02161 | 37083 ft | 445 kts | 162° |
| 2026-04-24 09:37 | 45.81079 | 75.05630 | 37082 ft | 445 kts | 162° |
| 2026-04-24 09:38 | 45.75386 | 75.09092 | 37083 ft | 446 kts | 162° |
| 2026-04-24 09:38 | 45.69694 | 75.12546 | 37083 ft | 446 kts | 162° |
| 2026-04-24 09:39 | 45.63992 | 75.15998 | 37078 ft | 446 kts | 162° |
| 2026-04-24 09:39 | 45.58293 | 75.19440 | 37077 ft | 445 kts | 162° |
| 2026-04-24 09:40 | 45.52626 | 75.22847 | 37078 ft | 445 kts | 162° |
| 2026-04-24 09:40 | 45.46943 | 75.26256 | 37074 ft | 445 kts | 162° |
| 2026-04-24 09:41 | 45.41223 | 75.29682 | 37074 ft | 445 kts | 162° |
| 2026-04-24 09:41 | 45.35528 | 75.33089 | 37077 ft | 446 kts | 162° |
| 2026-04-24 09:42 | 45.29833 | 75.36488 | 37071 ft | 446 kts | 162° |
| 2026-04-24 09:42 | 45.24134 | 75.39882 | 37068 ft | 446 kts | 162° |
| 2026-04-24 09:43 | 45.18397 | 75.43291 | 37074 ft | 446 kts | 162° |
| 2026-04-24 09:43 | 45.12699 | 75.46671 | 37074 ft | 445 kts | 162° |
| 2026-04-24 09:44 | 45.06992 | 75.50047 | 37074 ft | 445 kts | 162° |
| 2026-04-24 09:44 | 45.01311 | 75.53402 | 37065 ft | 445 kts | 162° |
| 2026-04-24 09:45 | 44.95586 | 75.56775 | 37068 ft | 445 kts | 162° |
| 2026-04-24 09:45 | 44.89886 | 75.60127 | 37075 ft | 445 kts | 163° |
| 2026-04-24 09:46 | 44.84167 | 75.63483 | 37017 ft | 445 kts | 163° |
| 2026-04-24 09:46 | 44.81343 | 75.65138 | 36772 ft | 444 kts | 163° |
| 2026-04-24 09:46 | 44.78455 | 75.66829 | 36442 ft | 442 kts | 163° |
| 2026-04-24 09:47 | 44.75652 | 75.68471 | 35977 ft | 438 kts | 163° |
| 2026-04-24 09:47 | 44.72852 | 75.70106 | 35431 ft | 438 kts | 163° |
| 2026-04-24 09:47 | 44.70032 | 75.71748 | 34772 ft | 441 kts | 163° |
| 2026-04-24 09:47 | 44.67200 | 75.73395 | 34079 ft | 445 kts | 163° |
| 2026-04-24 09:48 | 44.64343 | 75.75056 | 33285 ft | 448 kts | 163° |
| 2026-04-24 09:48 | 44.61469 | 75.76724 | 32504 ft | 451 kts | 163° |
| 2026-04-24 09:48 | 44.58575 | 75.78405 | 31805 ft | 451 kts | 163° |
| 2026-04-24 09:48 | 44.55714 | 75.80069 | 31327 ft | 445 kts | 163° |
| 2026-04-24 09:49 | 44.52881 | 75.81718 | 30865 ft | 440 kts | 163° |
| 2026-04-24 09:49 | 44.50084 | 75.83340 | 30405 ft | 435 kts | 163° |
| 2026-04-24 09:49 | 44.47318 | 75.84943 | 29910 ft | 430 kts | 164° |
| 2026-04-24 09:49 | 44.44545 | 75.86546 | 29402 ft | 425 kts | 164° |
| 2026-04-24 09:50 | 44.41862 | 75.88096 | 28908 ft | 421 kts | 164° |
| 2026-04-24 09:50 | 44.39173 | 75.89646 | 28408 ft | 417 kts | 164° |
| 2026-04-24 09:50 | 44.36509 | 75.91181 | 27928 ft | 413 kts | 164° |
| 2026-04-24 09:50 | 44.33839 | 75.92717 | 27466 ft | 409 kts | 164° |
| 2026-04-24 09:51 | 44.31235 | 75.94215 | 27003 ft | 405 kts | 164° |
| 2026-04-24 09:51 | 44.28657 | 75.95698 | 26535 ft | 402 kts | 164° |
| 2026-04-24 09:51 | 44.26109 | 75.97160 | 26087 ft | 398 kts | 164° |
| 2026-04-24 09:51 | 44.23548 | 75.98629 | 25618 ft | 395 kts | 164° |
| 2026-04-24 09:52 | 44.21039 | 76.00066 | 25149 ft | 391 kts | 164° |
| 2026-04-24 09:52 | 44.18539 | 76.01496 | 24691 ft | 388 kts | 164° |
| 2026-04-24 09:52 | 44.16060 | 76.02911 | 24229 ft | 384 kts | 164° |
| 2026-04-24 09:52 | 44.13604 | 76.04312 | 23776 ft | 380 kts | 164° |
| 2026-04-24 09:53 | 44.11177 | 76.05697 | 23324 ft | 377 kts | 164° |
| 2026-04-24 09:53 | 44.08733 | 76.07089 | 23099 ft | 377 kts | 164° |
| 2026-04-24 09:53 | 44.06306 | 76.08466 | 23103 ft | 380 kts | 164° |
| 2026-04-24 09:53 | 44.03844 | 76.09866 | 23103 ft | 381 kts | 163° |
| 2026-04-24 09:54 | 44.01391 | 76.11262 | 23096 ft | 381 kts | 164° |
| 2026-04-24 09:54 | 43.98941 | 76.12656 | 23105 ft | 381 kts | 164° |
| 2026-04-24 09:54 | 43.96496 | 76.14047 | 23114 ft | 381 kts | 164° |
| 2026-04-24 09:54 | 43.94046 | 76.15437 | 23109 ft | 381 kts | 164° |
| 2026-04-24 09:55 | 43.91588 | 76.16830 | 23108 ft | 381 kts | 164° |
| 2026-04-24 09:55 | 43.89152 | 76.18210 | 23046 ft | 375 kts | 163° |
| 2026-04-24 09:55 | 43.86770 | 76.19563 | 22303 ft | 370 kts | 164° |
| 2026-04-24 09:55 | 43.84390 | 76.20901 | 20994 ft | 375 kts | 163° |
| 2026-04-24 09:56 | 43.81977 | 76.22254 | 19656 ft | 379 kts | 163° |
| 2026-04-24 09:56 | 43.79575 | 76.23605 | 18526 ft | 377 kts | 163° |
| 2026-04-24 09:56 | 43.77160 | 76.24969 | 17450 ft | 372 kts | 162° |
| 2026-04-24 09:56 | 43.74804 | 76.26296 | 16453 ft | 370 kts | 162° |
| 2026-04-24 09:57 | 43.72443 | 76.27625 | 15786 ft | 360 kts | 161° |
| 2026-04-24 09:57 | 43.70178 | 76.28905 | 15274 ft | 349 kts | 161° |
| 2026-04-24 09:57 | 43.67929 | 76.30168 | 14812 ft | 347 kts | 161° |
| 2026-04-24 09:57 | 43.65700 | 76.31420 | 14369 ft | 344 kts | 161° |
| 2026-04-24 09:58 | 43.63518 | 76.32642 | 13933 ft | 342 kts | 160° |
| 2026-04-24 09:58 | 43.61304 | 76.33882 | 13507 ft | 340 kts | 160° |
| 2026-04-24 09:58 | 43.59127 | 76.35120 | 13072 ft | 339 kts | 159° |
| 2026-04-24 09:58 | 43.56968 | 76.36380 | 12633 ft | 337 kts | 159° |
| 2026-04-24 09:59 | 43.54841 | 76.37628 | 12237 ft | 335 kts | 159° |
| 2026-04-24 09:59 | 43.52703 | 76.38883 | 11781 ft | 334 kts | 158° |
| 2026-04-24 09:59 | 43.50556 | 76.40138 | 11341 ft | 331 kts | 158° |
| 2026-04-24 09:59 | 43.48474 | 76.41352 | 10971 ft | 329 kts | 158° |
| 2026-04-24 10:00 | 43.46359 | 76.42587 | 10575 ft | 326 kts | 158° |
| 2026-04-24 10:00 | 43.44303 | 76.43785 | 10370 ft | 315 kts | 158° |
| 2026-04-24 10:00 | 43.42327 | 76.44936 | 10268 ft | 302 kts | 157° |
| 2026-04-24 10:00 | 43.40528 | 76.46250 | 10093 ft | 293 kts | 146° |
| 2026-04-24 10:01 | 43.38946 | 76.47994 | 9714 ft | 292 kts | 137° |
| 2026-04-24 10:01 | 43.37471 | 76.49918 | 9382 ft | 288 kts | 135° |
| 2026-04-24 10:01 | 43.36041 | 76.51832 | 9058 ft | 286 kts | 135° |
| 2026-04-24 10:01 | 43.34638 | 76.53703 | 8745 ft | 284 kts | 135° |
| 2026-04-24 10:02 | 43.33210 | 76.55592 | 8401 ft | 282 kts | 135° |
| 2026-04-24 10:02 | 43.31803 | 76.57438 | 8056 ft | 280 kts | 135° |
| 2026-04-24 10:02 | 43.30403 | 76.59267 | 7734 ft | 278 kts | 135° |
| 2026-04-24 10:02 | 43.29007 | 76.61091 | 7388 ft | 277 kts | 135° |
| 2026-04-24 10:03 | 43.27643 | 76.62871 | 7160 ft | 269 kts | 135° |
| 2026-04-24 10:03 | 43.26482 | 76.64810 | 7008 ft | 258 kts | 116° |
| 2026-04-24 10:03 | 43.25885 | 76.67104 | 6717 ft | 254 kts | 102° |
| 2026-04-24 10:03 | 43.25508 | 76.69461 | 6388 ft | 253 kts | 101° |
| 2026-04-24 10:04 | 43.25150 | 76.71806 | 6091 ft | 251 kts | 101° |
| 2026-04-24 10:04 | 43.24781 | 76.74163 | 5773 ft | 250 kts | 101° |
| 2026-04-24 10:04 | 43.24411 | 76.76451 | 5502 ft | 249 kts | 102° |
| 2026-04-24 10:04 | 43.24029 | 76.78768 | 5341 ft | 242 kts | 101° |
| 2026-04-24 10:05 | 43.24018 | 76.80946 | 5290 ft | 224 kts | 73° |
| 2026-04-24 10:05 | 43.24643 | 76.82828 | 5261 ft | 215 kts | 57° |
| 2026-04-24 10:05 | 43.25504 | 76.84519 | 5060 ft | 213 kts | 53° |
| 2026-04-24 10:05 | 43.26344 | 76.86069 | 4890 ft | 195 kts | 53° |
| 2026-04-24 10:06 | 43.27114 | 76.87550 | 4604 ft | 183 kts | 54° |
| 2026-04-24 10:06 | 43.28462 | 76.90265 | 4105 ft | 161 kts | 55° |
| 2026-04-24 10:06 | 43.29062 | 76.91491 | 3902 ft | 150 kts | 55° |
| 2026-04-24 10:07 | 43.29623 | 76.92635 | 3735 ft | 140 kts | 54° |
| 2026-04-24 10:07 | 43.30158 | 76.93723 | 3572 ft | 138 kts | 54° |
| 2026-04-24 10:07 | 43.30694 | 76.94812 | 3408 ft | 138 kts | 54° |
| 2026-04-24 10:07 | 43.31230 | 76.95897 | 3236 ft | 137 kts | 54° |
| 2026-04-24 10:08 | 43.31759 | 76.96981 | 3067 ft | 136 kts | 55° |
| 2026-04-24 10:08 | 43.32288 | 76.98059 | 2848 ft | 137 kts | 53° |
| 2026-04-24 10:08 | 43.32827 | 76.99138 | 2692 ft | 136 kts | 54° |
| 2026-04-24 10:08 | 43.33354 | 77.00200 | 2526 ft | 134 kts | 55° |
| 2026-04-24 10:09 | 43.33880 | 77.01259 | 2367 ft | 134 kts | 54° |
| 2026-04-24 10:09 | 43.34401 | 77.02311 | 2240 ft | 124 kts | 54° |
| 2026-04-24 10:09 | 43.34793 | 77.03100 | 2235 ft | 76 kts | 56° |
| 2026-04-24 10:09 | 43.34997 | 77.03509 | 2237 ft | 31 kts | 55° |
| 2026-04-24 10:10 | 43.35109 | 77.03735 | 2240 ft | 23 kts | 52° |
| 2026-04-24 10:10 | 43.35216 | 77.03886 | 2241 ft | 21 kts | 39° |
| 2026-04-24 10:10 | 43.35341 | 77.03980 | 2241 ft | 19 kts | 25° |
| 2026-04-24 10:10 | 43.35435 | 77.03957 | 2240 ft | 17 kts | 258° |
| 2026-04-24 10:11 | 43.35372 | 77.03810 | 2238 ft | 18 kts | 236° |
| 2026-04-24 10:11 | 43.35299 | 77.03661 | 2236 ft | 19 kts | 237° |
| 2026-04-24 10:11 | 43.35223 | 77.03507 | 2235 ft | 19 kts | 235° |
| 2026-04-24 10:11 | 43.35144 | 77.03348 | 2233 ft | 20 kts | 236° |
| 2026-04-24 10:12 | 43.35064 | 77.03188 | 2232 ft | 20 kts | 235° |
| 2026-04-24 10:12 | 43.34986 | 77.03032 | 2232 ft | 19 kts | 236° |
| 2026-04-24 10:12 | 43.34909 | 77.02876 | 2233 ft | 19 kts | 237° |
| 2026-04-24 10:12 | 43.34839 | 77.02728 | 2233 ft | 18 kts | 237° |
| 2026-04-24 10:13 | 43.34779 | 77.02579 | 2235 ft | 17 kts | 253° |
| 2026-04-24 10:13 | 43.34776 | 77.02414 | 2234 ft | 17 kts | 275° |
| 2026-04-24 10:13 | 43.34785 | 77.02238 | 2229 ft | 19 kts | 273° |
| 2026-04-24 10:13 | 43.34790 | 77.02110 | 2228 ft | 12 kts | 274° |
| 2026-04-24 10:14 | 43.34796 | 77.01990 | 2228 ft | 12 kts | 274° |
| 2026-04-24 10:14 | 43.34802 | 77.01872 | 2229 ft | 12 kts | 273° |
| 2026-04-24 10:14 | 43.34808 | 77.01751 | 2229 ft | 12 kts | 274° |
| 2026-04-24 10:14 | 43.34811 | 77.01694 | 2229 ft | 0 kts | 273° |
| 2026-04-24 10:16 | 43.34811 | 77.01679 | 2229 ft | 3 kts | 273° |
| 2026-04-24 10:17 | 43.34814 | 77.01625 | 2229 ft | 7 kts | 273° |
| 2026-04-24 10:17 | 43.34816 | 77.01577 | 2229 ft | 0 kts | 274° |
| 2026-04-24 10:19 | 43.34816 | 77.01585 | 2229 ft | 2 kts | 274° |
| 2026-04-24 10:20 | 43.34815 | 77.01606 | 2229 ft | 2 kts | 273° |
| 2026-04-24 10:20 | 43.34818 | 77.01627 | 2229 ft | 2 kts | 239° |
| 2026-04-24 10:20 | 43.34827 | 77.01642 | 2229 ft | 2 kts | 214° |
| 2026-04-24 10:20 | 43.34841 | 77.01651 | 2229 ft | 2 kts | 195° |
| 2026-04-24 10:21 | 43.34856 | 77.01654 | 2228 ft | 2 kts | 180° |
| 2026-04-24 10:21 | 43.34871 | 77.01655 | 2228 ft | 1 kts | 186° |
| 2026-04-24 10:21 | 43.34874 | 77.01656 | 2228 ft | 0 kts | 186° |